Time;durP1;ratioP1;P1;durP2;ratioP2;P2;SDS_P1;SDS_P2;PMS_P1;PMS_P2;Temp;Humidity;BMP_temperature;BMP_pressure;BME280_temperature;BME280_humidity;BME280_pressure;Samples;Min_cycle;Max_cycle;Signal;HPM_P1;HPM_P2
2021/12/13 00:00:35;;;;;;;135.05;66.15;;;;;;;8.76;100.00;102365.38;1042844;28;20291;-84
2021/12/13 00:01:35;;;;;;;126.60;64.82;;;;;;;8.76;100.00;102357.41;1033962;28;20294;-84
2021/12/13 00:02:23;;;;;;;113.38;58.47;;;;;;;8.77;100.00;102369.72;1046182;28;20271;-85
2021/12/13 00:03:06;;;;;;;127.28;61.20;;;;;;;8.74;100.00;102367.38;1047250;28;20279;-84
2021/12/13 00:04:03;;;;;;;121.38;58.40;;;;;;;8.76;100.00;102354.75;1047463;28;20653;-85
2021/12/13 00:04:40;;;;;;;120.03;59.30;;;;;;;8.74;100.00;102364.72;1048513;28;20321;-82
2021/12/13 00:05:20;;;;;;;121.07;59.90;;;;;;;8.79;100.00;102364.25;1045240;28;20685;-76
2021/12/13 00:05:58;;;;;;;125.63;60.72;;;;;;;8.75;100.00;102358.41;1041618;28;20287;-75
2021/12/13 00:06:35;;;;;;;130.90;62.03;;;;;;;8.75;100.00;102358.41;1040581;28;20287;-75
2021/12/13 00:07:13;;;;;;;125.22;61.15;;;;;;;8.74;100.00;102356.75;1037140;28;20269;-77
2021/12/13 00:07:53;;;;;;;131.07;61.72;;;;;;;8.74;100.00;102351.44;1043134;28;20777;-84
2021/12/13 00:08:29;;;;;;;117.15;59.45;;;;;;;8.73;100.00;102363.06;1041479;28;20283;-84
2021/12/13 00:09:06;;;;;;;122.70;60.38;;;;;;;8.76;100.00;102353.91;1040269;28;20312;-84
2021/12/13 00:09:43;;;;;;;124.30;61.22;;;;;;;8.72;100.00;102364.03;1036516;28;20758;-84
2021/12/13 00:10:18;;;;;;;128.00;63.97;;;;;;;8.75;100.00;102363.72;1037535;28;20643;-84
2021/12/13 00:10:59;;;;;;;125.40;61.42;;;;;;;8.75;100.00;102363.72;1038195;28;20308;-84
2021/12/13 00:11:33;;;;;;;122.75;63.17;;;;;;;8.73;100.00;102360.41;1044790;28;20275;-85
2021/12/13 00:12:07;;;;;;;123.78;62.08;;;;;;;8.75;100.00;102361.06;1043417;28;20056;-84
2021/12/13 00:12:42;;;;;;;120.95;62.08;;;;;;;8.74;100.00;102359.41;1045638;28;20765;-84
2021/12/13 00:13:19;;;;;;;122.22;61.45;;;;;;;8.73;100.00;102360.41;1041630;28;20268;-84
2021/12/13 00:14:06;;;;;;;122.65;62.92;;;;;;;8.72;100.00;102368.53;1043473;28;20753;-84
2021/12/13 00:14:52;;;;;;;120.70;61.33;;;;;;;8.72;100.00;102358.72;1042868;28;20276;-84
2021/12/13 00:15:30;;;;;;;111.25;58.83;;;;;;;8.73;100.00;102354.25;1045499;28;20279;-84
2021/12/13 00:16:05;;;;;;;118.28;62.38;;;;;;;8.72;100.00;102357.91;1047304;28;20423;-85
2021/12/13 00:16:41;;;;;;;119.53;59.92;;;;;;;8.74;100.00;102362.06;1042692;28;20761;-84
2021/12/13 00:17:18;;;;;;;121.63;60.90;;;;;;;8.73;100.00;102359.56;1037962;28;20813;-84
2021/12/13 00:17:51;;;;;;;115.05;60.97;;;;;;;8.71;100.00;102357.06;1033145;28;20612;-76
2021/12/13 00:18:28;;;;;;;115.07;59.75;;;;;;;8.73;100.00;102360.41;1030941;28;20274;-76
2021/12/13 00:19:04;;;;;;;125.55;63.75;;;;;;;8.70;100.00;102366.03;1035685;28;20634;-76
2021/12/13 00:19:39;;;;;;;114.22;62.53;;;;;;;8.70;100.00;102360.72;1039217;28;20284;-76
2021/12/13 00:20:27;;;;;;;120.40;65.85;;;;;;;8.71;100.00;102357.06;1041617;28;20678;-76
2021/12/13 00:21:07;;;;;;;117.03;64.85;;;;;;;8.71;100.00;102354.41;1045802;28;20298;-76
2021/12/13 00:21:43;;;;;;;124.10;66.22;;;;;;;8.72;100.00;102357.91;1051449;28;20644;-76
2021/12/13 00:22:22;;;;;;;129.52;68.28;;;;;;;8.74;100.00;102355.91;1051511;28;20079;-75
2021/12/13 00:22:56;;;;;;;117.22;64.15;;;;;;;8.77;100.00;102361.75;1046830;28;20287;-75
2021/12/13 00:23:31;;;;;;;131.45;70.35;;;;;;;8.79;100.00;102357.09;1043438;28;20272;-76
2021/12/13 00:24:07;;;;;;;128.75;68.53;;;;;;;8.78;100.00;102357.25;1039206;28;20268;-76
2021/12/13 00:24:41;;;;;;;124.90;68.53;;;;;;;8.77;100.00;102361.75;1040660;28;20678;-77
2021/12/13 00:25:31;;;;;;;132.18;72.63;;;;;;;8.76;100.00;102354.75;1044956;28;20646;-75
2021/12/13 00:26:04;;;;;;;112.85;60.88;;;;;;;8.74;100.00;102361.22;1041277;28;20291;-76
2021/12/13 00:26:41;;;;;;;124.35;66.97;;;;;;;8.78;100.00;102360.75;1038876;28;20284;-76
2021/12/13 00:27:19;;;;;;;126.80;67.47;;;;;;;8.73;100.00;102357.75;1038734;28;20754;-77
2021/12/13 00:28:14;;;;;;;126.95;67.07;;;;;;;8.78;100.00;102358.09;1037067;28;20281;-76
2021/12/13 00:28:45;;;;;;;115.32;61.35;;;;;;;8.76;100.00;102362.72;1035449;28;20285;-75
2021/12/13 00:29:23;;;;;;;126.03;65.40;;;;;;;8.79;100.00;102359.75;1043022;28;20279;-76
2021/12/13 00:30:09;;;;;;;125.90;69.40;;;;;;;8.75;100.00;102355.75;1043202;28;20315;-76
2021/12/13 00:30:54;;;;;;;126.13;63.50;;;;;;;8.76;100.00;102354.75;1038906;28;20284;-76
2021/12/13 00:32:03;;;;;;;124.47;64.32;;;;;;;8.76;100.00;102353.91;1043472;28;20291;-75
2021/12/13 00:32:47;;;;;;;113.00;57.55;;;;;;;8.73;100.00;102365.72;1042598;28;20326;-75
2021/12/13 00:33:32;;;;;;;106.53;54.70;;;;;;;8.73;100.00;102360.41;1043908;28;20286;-75
2021/12/13 00:34:28;;;;;;;112.30;55.22;;;;;;;8.75;100.00;102369.03;1041536;28;20284;-76
2021/12/13 00:35:00;;;;;;;105.97;50.75;;;;;;;8.72;100.00;102369.34;1047484;28;20660;-76
2021/12/13 00:35:41;;;;;;;102.78;54.67;;;;;;;8.76;100.00;102368.03;1042858;28;20313;-76
2021/12/13 00:36:17;;;;;;;98.28;53.22;;;;;;;8.73;100.00;102365.72;1047412;28;20652;-76
2021/12/13 00:37:16;;;;;;;99.53;53.58;;;;;;;8.71;100.00;102373.00;1046936;28;20086;-76
2021/12/13 00:37:50;;;;;;;103.00;51.58;;;;;;;8.72;100.00;102366.69;1047125;28;20285;-76
2021/12/13 00:38:25;;;;;;;94.78;50.75;;;;;;;8.70;100.00;102371.34;1043013;28;20316;-76
2021/12/13 00:39:09;;;;;;;104.63;53.28;;;;;;;8.69;100.00;102369.69;1042840;28;20880;-75
2021/12/13 00:39:45;;;;;;;95.68;51.65;;;;;;;8.67;100.00;102371.69;1043054;28;20789;-76
2021/12/13 00:40:22;;;;;;;102.25;53.05;;;;;;;8.69;100.00;102372.34;1041909;28;20280;-76
2021/12/13 00:41:02;;;;;;;94.78;50.05;;;;;;;8.71;100.00;102367.69;1046653;28;20291;-76
2021/12/13 00:41:35;;;;;;;104.65;49.78;;;;;;;8.72;100.00;102373.84;1042943;28;20657;-76
2021/12/13 00:42:07;;;;;;;96.63;51.60;;;;;;;8.70;100.00;102371.34;1045555;28;20287;-76
2021/12/13 00:42:54;;;;;;;92.30;49.70;;;;;;;8.70;100.00;102368.69;1043133;28;20284;-76
2021/12/13 00:43:35;;;;;;;94.90;50.67;;;;;;;8.70;100.00;102374.00;1038103;28;20276;-76
2021/12/13 00:44:12;;;;;;;97.47;52.30;;;;;;;8.70;100.00;102381.97;1038762;28;20280;-76
2021/12/13 00:44:53;;;;;;;100.07;52.67;;;;;;;8.69;100.00;102375.00;1038939;28;20049;-76
2021/12/13 00:45:28;;;;;;;99.63;51.08;;;;;;;8.67;100.00;102371.69;1042936;28;20279;-76
2021/12/13 00:46:03;;;;;;;92.07;51.03;;;;;;;8.69;100.00;102372.34;1042550;28;20057;-76
2021/12/13 00:46:37;;;;;;;95.47;52.72;;;;;;;8.72;100.00;102374.69;1039550;28;20280;-75
2021/12/13 00:47:13;;;;;;;95.78;51.00;;;;;;;8.71;100.00;102377.50;1037344;28;21160;-76
2021/12/13 00:47:45;;;;;;;96.82;53.25;;;;;;;8.69;100.00;102380.31;1033608;28;20293;-75
2021/12/13 00:48:17;;;;;;;90.10;52.25;;;;;;;8.69;100.00;102375.00;1033085;28;20763;-76
2021/12/13 00:48:53;;;;;;;99.82;55.72;;;;;;;8.69;100.00;102377.66;1032490;28;20285;-76
2021/12/13 00:49:27;;;;;;;89.40;51.95;;;;;;;8.68;100.00;102378.66;1037819;28;20546;-76
2021/12/13 00:50:23;;;;;;;99.32;54.88;;;;;;;8.75;100.00;102374.34;1043089;28;20354;-76
2021/12/13 00:51:01;;;;;;;84.32;48.22;;;;;;;8.74;100.00;102375.34;1041654;28;20280;-76
2021/12/13 00:51:36;;;;;;;98.05;50.47;;;;;;;8.73;100.00;102383.47;1039696;28;20338;-76
2021/12/13 00:52:08;;;;;;;91.88;48.30;;;;;;;8.72;100.00;102385.31;1039686;28;20280;-76
2021/12/13 00:52:43;;;;;;;100.25;52.47;;;;;;;8.75;100.00;102382.31;1039724;28;20303;-76
2021/12/13 00:53:16;;;;;;;98.43;51.25;;;;;;;8.74;100.00;102382.47;1045834;28;20276;-76
2021/12/13 00:53:50;;;;;;;91.38;52.63;;;;;;;8.74;100.00;102382.47;1041712;28;20284;-75
2021/12/13 00:54:32;;;;;;;99.18;53.78;;;;;;;8.71;100.00;102383.63;1036859;28;20284;-75
2021/12/13 00:55:26;;;;;;;90.35;52.13;;;;;;;8.71;100.00;102378.31;1035661;28;20311;-75
2021/12/13 00:55:59;;;;;;;86.95;49.42;;;;;;;8.70;100.00;102384.63;1040605;28;20288;-75
2021/12/13 00:56:48;;;;;;;85.60;49.40;;;;;;;8.71;100.00;102382.81;1047929;28;20275;-76
2021/12/13 00:57:40;;;;;;;95.18;50.00;;;;;;;8.72;100.00;102374.69;1044128;28;20298;-75
2021/12/13 00:58:15;;;;;;;85.68;46.58;;;;;;;8.76;100.00;102383.97;1043453;28;20808;-75
2021/12/13 00:58:48;;;;;;;85.65;48.92;;;;;;;8.73;100.00;102386.97;1043569;28;20295;-76
2021/12/13 00:59:33;;;;;;;102.15;52.08;;;;;;;8.71;100.00;102383.63;1045789;28;20290;-75
2021/12/13 01:00:11;;;;;;;91.35;49.80;;;;;;;8.69;100.00;102385.63;1047066;28;20361;-76
2021/12/13 01:00:48;;;;;;;87.18;49.75;;;;;;;8.67;100.00;102382.31;1047747;28;20290;-76
2021/12/13 01:01:22;;;;;;;87.80;49.75;;;;;;;8.67;100.00;102382.31;1051030;28;20281;-76
2021/12/13 01:01:58;;;;;;;84.15;46.33;;;;;;;8.69;100.00;102385.63;1047809;28;20297;-75
2021/12/13 01:02:40;;;;;;;93.07;50.92;;;;;;;8.70;100.00;102389.13;1044039;28;20350;-76
2021/12/13 01:03:22;;;;;;;93.03;50.40;;;;;;;8.69;100.00;102396.25;1043636;28;20378;-75
2021/12/13 01:03:53;;;;;;;86.65;49.92;;;;;;;8.71;100.00;102394.28;1043504;28;20303;-75
2021/12/13 01:04:47;;;;;;;96.38;50.42;;;;;;;8.70;100.00;102386.47;1039569;28;20284;-75
2021/12/13 01:05:40;;;;;;;89.03;47.92;;;;;;;8.70;100.00;102395.25;1038064;28;20272;-76
2021/12/13 01:06:45;;;;;;;86.18;45.83;;;;;;;8.73;100.00;102397.59;1043490;28;20280;-76
2021/12/13 01:07:54;;;;;;;86.93;45.00;;;;;;;8.73;100.00;102402.91;1046051;28;20290;-76
2021/12/13 01:09:02;;;;;;;72.05;40.67;;;;;;;8.70;100.00;102397.91;1046191;28;20294;-82
2021/12/13 01:10:39;;;;;;;76.25;41.60;;;;;;;8.68;100.00;102405.22;1050992;28;20282;-84
2021/12/13 01:11:19;;;;;;;87.47;43.08;;;;;;;8.66;100.00;102401.91;1023422;28;20299;-76
2021/12/13 01:11:53;;;;;;;86.50;47.05;;;;;;;8.66;100.00;102397.44;1027235;28;20768;-75
2021/12/13 01:12:25;;;;;;;91.00;45.35;;;;;;;8.66;100.00;102402.75;1027076;28;20125;-84
2021/12/13 01:12:58;;;;;;;89.43;47.28;;;;;;;8.67;100.00;102403.56;1027420;28;20281;-84
2021/12/13 01:13:55;;;;;;;79.60;46.45;;;;;;;8.67;100.00;102403.56;1027483;28;20289;-84
2021/12/13 01:14:34;;;;;;;79.57;43.53;;;;;;;8.67;100.00;102406.22;1014799;29;20272;-76
2021/12/13 01:15:14;;;;;;;79.90;43.17;;;;;;;8.66;100.00;102401.91;1014226;29;20284;-76
2021/12/13 01:15:56;;;;;;;82.05;45.17;;;;;;;8.65;100.00;102405.56;1027037;28;20282;-75
2021/12/13 01:16:42;;;;;;;82.75;43.40;;;;;;;8.69;100.00;102406.88;1025416;28;20055;-75
2021/12/13 01:17:27;;;;;;;73.00;40.20;;;;;;;8.71;100.00;102399.59;1041495;28;20275;-76
2021/12/13 01:18:22;;;;;;;86.40;43.63;;;;;;;8.68;100.00;102400.75;1051516;28;20636;-75
2021/12/13 01:20:30;;;;;;;70.45;38.53;;;;;;;8.68;100.00;102399.91;1043447;28;20289;-75
2021/12/13 01:21:28;;;;;;;72.82;37.72;;;;;;;8.66;100.00;102401.91;1044461;28;20290;-75
2021/12/13 01:22:50;;;;;;;69.38;38.55;;;;;;;8.69;100.00;102406.88;1042261;28;20314;-75
2021/12/13 01:23:17;;;;;;;77.13;37.53;;;;;;;8.69;100.00;102406.88;1039292;28;20804;-76
2021/12/13 01:23:52;;;;;;;63.95;36.55;;;;;;;8.71;100.00;102404.91;1047714;28;20279;-75
2021/12/13 01:25:46;;;;;;;56.22;34.13;;;;;;;8.73;100.00;102413.53;1047279;28;20362;-76
2021/12/13 01:26:38;;;;;;;64.32;34.58;;;;;;;8.73;100.00;102405.56;1046884;28;20271;-75
2021/12/13 01:27:09;;;;;;;;;;;;;;;8.70;100.00;102407.72;1044139;28;20637;-83
2021/12/13 01:27:42;;;;;;;;;;;;;;;8.68;100.00;102415.84;1036202;28;20450;-84
2021/12/13 01:28:14;;;;;;;62.38;33.28;;;;;;;8.68;100.00;102416.69;1035218;28;19928;-84
2021/12/13 01:28:49;;;;;;;63.28;35.95;;;;;;;8.68;100.00;102416.69;1036235;28;20291;-84
2021/12/13 01:29:27;;;;;;;65.03;37.80;;;;;;;8.66;100.00;102413.38;1040360;28;20655;-84
2021/12/13 01:29:59;;;;;;;71.10;37.83;;;;;;;8.68;100.00;102410.53;1045552;28;20303;-84
2021/12/13 01:30:42;;;;;;;77.38;38.55;;;;;;;8.69;100.00;102417.50;1043537;28;20275;-83
2021/12/13 01:31:21;;;;;;;65.07;36.28;;;;;;;8.70;100.00;102413.84;1043967;28;20279;-84
2021/12/13 01:31:54;;;;;;;70.00;36.67;;;;;;;8.69;100.00;102409.53;1040497;28;20841;-79
2021/12/13 01:32:41;;;;;;;69.70;37.50;;;;;;;8.67;100.00;102415.03;1044391;28;20286;-75
2021/12/13 01:33:14;;;;;;;71.90;39.17;;;;;;;8.66;100.00;102417.84;1046319;28;20267;-76
2021/12/13 01:33:46;;;;;;;67.30;40.55;;;;;;;8.67;100.00;102419.50;1039614;28;20303;-75
2021/12/13 01:34:19;;;;;;;70.68;37.90;;;;;;;8.67;100.00;102417.69;1042294;28;20271;-76
2021/12/13 01:34:51;;;;;;;65.78;39.65;;;;;;;8.65;100.00;102422.31;1039558;28;20646;-75
2021/12/13 01:35:29;;;;;;;70.63;39.67;;;;;;;8.66;100.00;102423.16;1035441;28;20685;-76
2021/12/13 01:36:04;;;;;;;64.18;38.55;;;;;;;8.65;100.00;102416.19;1038517;28;20280;-75
2021/12/13 01:36:48;;;;;;;73.28;41.80;;;;;;;8.62;100.00;102414.69;1045391;28;20275;-75
2021/12/13 01:37:20;;;;;;;69.35;37.38;;;;;;;8.64;100.00;102414.53;1047401;28;20278;-75
2021/12/13 01:37:54;;;;;;;70.43;38.33;;;;;;;8.63;100.00;102416.34;1047033;28;20791;-76
2021/12/13 01:38:34;;;;;;;68.10;39.10;;;;;;;8.63;100.00;102424.31;1047581;28;20508;-75
2021/12/13 01:39:09;;;;;;;68.05;39.47;;;;;;;8.63;100.00;102426.16;1039471;28;20758;-75
2021/12/13 01:39:44;;;;;;;67.35;39.50;;;;;;;8.62;100.00;102421.84;1039400;28;20046;-75
2021/12/13 01:40:15;;;;;;;66.93;42.25;;;;;;;8.68;100.00;102422.00;1038315;28;20287;-75
2021/12/13 01:40:52;;;;;;;71.75;45.30;;;;;;;8.65;100.00;102422.31;1040396;28;20747;-76
2021/12/13 01:41:29;;;;;;;72.75;44.00;;;;;;;8.63;100.00;102423.50;1047371;28;20279;-75
2021/12/13 01:42:05;;;;;;;68.85;42.15;;;;;;;8.64;100.00;102425.16;1045334;28;20283;-76
2021/12/13 01:42:38;;;;;;;67.97;43.58;;;;;;;8.62;100.00;102433.28;1043397;28;20283;-76
2021/12/13 01:43:18;;;;;;;70.03;43.45;;;;;;;8.62;100.00;102427.16;1043636;28;20618;-76
2021/12/13 01:43:57;;;;;;;69.03;40.28;;;;;;;8.60;100.00;102437.09;1043414;28;20287;-75
2021/12/13 01:44:32;;;;;;;76.68;43.03;;;;;;;8.57;100.00;102432.94;1046216;28;20037;-76
2021/12/13 01:45:10;;;;;;;70.35;42.88;;;;;;;8.57;100.00;102432.13;1047657;28;20799;-75
2021/12/13 01:45:44;;;;;;;75.75;42.20;;;;;;;8.56;100.00;102430.47;1050693;28;20285;-76
2021/12/13 01:46:21;;;;;;;65.25;43.00;;;;;;;8.54;100.00;102430.63;1052480;28;20396;-75
2021/12/13 01:47:04;;;;;;;68.63;40.25;;;;;;;8.56;100.00;102433.94;1052448;28;20363;-76
2021/12/13 01:47:40;;;;;;;68.15;41.75;;;;;;;8.54;100.00;102425.31;1047485;28;20853;-75
2021/12/13 01:48:31;;;;;;;66.97;39.53;;;;;;;8.57;100.00;102432.94;1043665;28;20306;-75
2021/12/13 01:49:04;;;;;;;68.88;37.92;;;;;;;8.56;100.00;102430.47;1037442;28;20766;-76
2021/12/13 01:49:39;;;;;;;63.35;38.08;;;;;;;8.55;100.00;102431.47;1043061;28;20041;-75
2021/12/13 01:50:16;;;;;;;74.75;39.88;;;;;;;8.55;100.00;102437.59;1039246;28;20279;-76
2021/12/13 01:50:53;;;;;;;59.47;37.53;;;;;;;8.57;100.00;102438.25;1041373;28;20276;-76
2021/12/13 01:51:26;;;;;;;62.13;39.22;;;;;;;8.57;100.00;102430.28;1042007;28;20295;-75
2021/12/13 01:51:59;;;;;;;55.45;38.42;;;;;;;8.57;100.00;102440.09;1041871;28;20280;-76
2021/12/13 01:52:33;;;;;;;60.22;39.80;;;;;;;8.58;100.00;102431.13;1039511;28;20280;-75
2021/12/13 01:53:04;;;;;;;66.88;37.92;;;;;;;8.58;100.00;102436.44;1040612;28;20287;-75
2021/12/13 01:53:59;;;;;;;61.08;39.15;;;;;;;8.56;100.00;102439.25;1039785;28;20638;-75
2021/12/13 01:54:31;;;;;;;52.47;32.65;;;;;;;8.57;100.00;102440.09;1037849;28;20269;-76
2021/12/13 01:55:24;;;;;;;62.17;37.58;;;;;;;8.54;100.00;102435.94;1043034;28;20286;-76
2021/12/13 01:55:58;;;;;;;60.92;34.90;;;;;;;8.52;100.00;102442.41;1047272;28;20287;-75
2021/12/13 01:57:47;;;;;;;57.17;33.05;;;;;;;8.57;100.00;102440.09;1039343;28;20284;-76
2021/12/13 01:59:03;;;;;;;57.22;32.90;;;;;;;8.60;100.00;102445.06;1047648;28;20286;-75
2021/12/13 01:59:50;;;;;;;48.70;31.08;;;;;;;8.55;100.00;102442.91;1043785;28;20271;-76
2021/12/13 02:01:08;;;;;;;52.15;30.17;;;;;;;8.52;100.00;102443.25;1042525;28;20287;-75
2021/12/13 02:01:25;;;;;;;52.00;29.70;;;;;;;8.50;100.00;102439.91;1046739;28;20278;-75
2021/12/13 02:02:20;;;;;;;51.03;29.77;;;;;;;8.48;100.00;102443.69;1044971;28;20287;-75
2021/12/13 02:02:53;;;;;;;55.33;28.52;;;;;;;8.46;100.00;102440.38;1041858;28;20788;-76
2021/12/13 02:03:48;;;;;;;46.25;29.48;;;;;;;8.45;100.00;102436.91;1039684;28;20292;-76
2021/12/13 02:04:22;;;;;;;43.65;28.73;;;;;;;8.47;100.00;102434.06;1039710;28;20272;-76
2021/12/13 02:05:17;;;;;;;48.47;29.30;;;;;;;8.47;100.00;102440.22;1039339;28;20280;-75
2021/12/13 02:05:49;;;;;;;51.58;29.65;;;;;;;8.46;100.00;102437.72;1042677;28;20295;-76
2021/12/13 02:06:38;;;;;;;48.72;29.10;;;;;;;8.48;100.00;102446.34;1043286;28;20333;-75
2021/12/13 02:07:12;;;;;;;41.55;26.38;;;;;;;8.47;100.00;102440.22;1041204;28;20646;-76
2021/12/13 02:08:01;;;;;;;50.50;29.50;;;;;;;8.48;100.00;102443.69;1039179;28;20638;-76
2021/12/13 02:08:33;;;;;;;50.53;30.67;;;;;;;8.45;100.00;102446.69;1041529;28;20813;-76
2021/12/13 02:09:21;;;;;;;43.92;28.30;;;;;;;8.47;100.00;102444.69;1036820;28;20281;-76
2021/12/13 02:09:55;;;;;;;51.50;26.40;;;;;;;8.46;100.00;102440.38;1043453;28;20667;-76
2021/12/13 02:10:34;;;;;;;40.13;28.90;;;;;;;8.45;100.00;102446.69;1042698;28;20283;-76
2021/12/13 02:11:06;;;;;;;43.30;29.05;;;;;;;8.44;100.00;102445.03;1041753;28;20276;-75
2021/12/13 02:11:38;;;;;;;55.20;28.38;;;;;;;8.43;100.00;102448.69;1043278;28;20318;-76
2021/12/13 02:12:16;;;;;;;46.80;30.77;;;;;;;8.41;100.00;102446.19;1045089;28;20279;-75
2021/12/13 02:12:59;;;;;;;44.33;28.48;;;;;;;8.42;100.00;102447.00;1044471;28;20993;-75
2021/12/13 02:13:38;;;;;;;40.55;27.00;;;;;;;8.40;100.00;102449.00;1043346;28;20290;-75
2021/12/13 02:14:16;;;;;;;47.08;28.42;;;;;;;8.40;100.00;102443.69;1043368;28;20638;-75
2021/12/13 02:16:55;;;;;;;48.20;27.55;;;;;;;8.41;100.00;102446.19;1043389;28;20741;-76
2021/12/13 02:17:31;;;;;;;35.78;23.95;;;;;;;8.42;100.00;102441.72;1047780;28;20274;-76
2021/12/13 02:18:03;;;;;;;50.63;28.08;;;;;;;8.42;100.00;102439.06;1045252;28;20276;-76
2021/12/13 02:18:37;;;;;;;41.70;26.13;;;;;;;8.40;100.00;102443.69;1043405;28;20954;-76
2021/12/13 02:19:08;;;;;;;45.30;27.17;;;;;;;8.38;100.00;102441.19;1039646;28;20776;-75
2021/12/13 02:19:42;;;;;;;40.58;26.73;;;;;;;8.38;100.00;102448.34;1036272;28;20288;-76
2021/12/13 02:20:37;;;;;;;45.85;30.58;;;;;;;8.35;100.00;102445.00;1036090;28;20288;-76
2021/12/13 02:21:29;;;;;;;43.67;26.27;;;;;;;8.36;100.00;102448.50;1042634;28;21149;-76
2021/12/13 02:22:20;;;;;;;44.20;27.35;;;;;;;8.34;100.00;102447.84;1044085;28;20288;-75
2021/12/13 02:22:54;;;;;;;45.88;26.92;;;;;;;8.35;100.00;102446.84;1045195;28;20278;-76
2021/12/13 02:23:26;;;;;;;44.60;27.25;;;;;;;8.39;100.00;102442.03;1039113;28;20276;-75
2021/12/13 02:24:07;;;;;;;44.70;28.08;;;;;;;8.34;100.00;102447.84;1038811;28;20287;-75
2021/12/13 02:24:39;;;;;;;47.30;28.33;;;;;;;8.32;100.00;102447.97;1039373;28;20760;-75
2021/12/13 02:25:15;;;;;;;51.70;29.08;;;;;;;8.32;100.00;102449.78;1039075;28;20292;-75
2021/12/13 02:25:50;;;;;;;46.28;29.58;;;;;;;8.33;100.00;102444.34;1042028;28;20785;-76
2021/12/13 02:26:25;;;;;;;49.05;28.88;;;;;;;8.31;100.00;102441.00;1039753;28;20287;-76
2021/12/13 02:26:59;;;;;;;48.03;30.98;;;;;;;8.34;100.00;102450.50;1036585;28;20674;-75
2021/12/13 02:27:33;;;;;;;51.75;30.27;;;;;;;8.32;100.00;102447.97;1036749;28;20287;-76
2021/12/13 02:28:08;;;;;;;50.40;30.38;;;;;;;8.30;100.00;102449.94;1036747;28;20781;-75
2021/12/13 02:28:42;;;;;;;49.80;30.88;;;;;;;8.29;100.00;102448.28;1033270;28;20296;-76
2021/12/13 02:29:22;;;;;;;52.08;29.23;;;;;;;8.28;100.00;102451.94;1034502;28;20285;-76
2021/12/13 02:29:58;;;;;;;48.05;31.63;;;;;;;8.26;100.00;102440.66;1037917;28;20280;-76
2021/12/13 02:30:38;;;;;;;52.58;31.80;;;;;;;8.26;100.00;102448.63;1041675;28;20287;-76
2021/12/13 02:31:20;;;;;;;50.17;32.35;;;;;;;8.25;100.00;102446.13;1041270;28;20638;-76
2021/12/13 02:31:51;;;;;;;47.63;30.63;;;;;;;8.23;100.00;102443.63;1041530;28;20042;-76
2021/12/13 02:32:28;;;;;;;48.35;33.28;;;;;;;8.28;100.00;102446.63;1046190;28;20372;-75
2021/12/13 02:33:00;;;;;;;52.58;33.55;;;;;;;8.26;100.00;102443.31;1047036;28;20283;-76
2021/12/13 02:33:38;;;;;;;55.65;35.95;;;;;;;8.22;100.00;102439.31;1044594;28;20657;-76
2021/12/13 02:34:14;;;;;;;56.15;34.80;;;;;;;8.20;100.00;102443.09;1047449;28;20320;-75
2021/12/13 02:34:45;;;;;;;58.33;35.80;;;;;;;8.20;100.00;102443.09;1039695;28;20644;-76
2021/12/13 02:35:19;;;;;;;54.90;36.25;;;;;;;8.19;100.00;102441.44;1040487;28;20648;-76
2021/12/13 02:36:11;;;;;;;56.03;36.28;;;;;;;8.13;100.00;102442.09;1039587;28;20283;-75
2021/12/13 02:36:48;;;;;;;51.92;33.65;;;;;;;8.09;100.00;102441.59;1040513;28;20295;-84
2021/12/13 02:37:20;;;;;;;49.22;33.88;;;;;;;8.09;100.00;102444.25;1041889;28;20291;-84
2021/12/13 02:37:51;;;;;;;56.47;35.25;;;;;;;8.12;100.00;102451.88;1047127;28;20278;-84
2021/12/13 02:38:25;;;;;;;47.65;36.00;;;;;;;8.11;100.00;102439.59;1040512;28;20532;-84
2021/12/13 02:39:00;;;;;;;56.95;36.50;;;;;;;8.02;100.00;102448.53;1039308;28;20291;-84
2021/12/13 02:39:35;;;;;;;58.92;34.90;;;;;;;7.98;100.00;102439.22;1037241;28;20658;-84
2021/12/13 02:40:08;;;;;;;51.78;34.47;;;;;;;7.95;100.00;102447.50;1042382;28;20287;-85
2021/12/13 02:40:41;;;;;;;53.42;34.40;;;;;;;7.95;100.00;102450.16;1049379;28;20695;-84
2021/12/13 02:41:14;;;;;;;57.60;38.00;;;;;;;7.99;100.00;102441.72;1051946;28;20282;-84
2021/12/13 02:41:46;;;;;;;51.10;35.58;;;;;;;7.98;100.00;102444.53;1052007;28;20288;-84
2021/12/13 02:42:18;;;;;;;58.53;36.22;;;;;;;7.98;100.00;102447.19;1047418;28;20313;-84
2021/12/13 02:42:51;;;;;;;59.45;35.13;;;;;;;7.94;100.00;102444.03;1047535;28;20660;-84
2021/12/13 02:43:27;;;;;;;52.03;34.88;;;;;;;7.92;100.00;102440.69;1041174;28;20284;-84
2021/12/13 02:44:05;;;;;;;61.80;34.22;;;;;;;7.91;100.00;102446.97;1042428;28;20276;-84
2021/12/13 02:44:41;;;;;;;56.00;34.53;;;;;;;7.90;100.00;102447.13;1040876;28;20272;-84
2021/12/13 02:45:42;;;;;;;57.08;34.42;;;;;;;7.88;100.00;102449.13;1041588;28;20280;-84
2021/12/13 02:46:14;;;;;;;46.35;31.00;;;;;;;7.88;100.00;102444.63;1040147;28;20276;-85
2021/12/13 02:46:47;;;;;;;54.20;33.13;;;;;;;7.91;100.00;102448.78;1039605;28;20161;-85
2021/12/13 02:47:26;;;;;;;53.83;33.83;;;;;;;7.89;100.00;102442.81;1043438;28;20657;-84
2021/12/13 02:48:06;;;;;;;53.97;36.22;;;;;;;7.87;100.00;102447.44;1042089;28;20367;-85
2021/12/13 02:48:45;;;;;;;49.85;32.20;;;;;;;7.88;100.00;102446.47;1036537;28;20292;-84
2021/12/13 02:49:18;;;;;;;61.42;36.78;;;;;;;7.93;100.00;102447.66;1035082;28;20049;-76
2021/12/13 02:49:51;;;;;;;55.47;37.03;;;;;;;7.92;100.00;102445.97;1033735;28;20656;-76
2021/12/13 02:50:49;;;;;;;53.38;36.83;;;;;;;7.92;100.00;102451.28;1034095;28;20643;-76
2021/12/13 02:51:31;;;;;;;54.25;33.13;;;;;;;7.94;100.00;102444.03;1035574;28;20278;-76
2021/12/13 02:52:07;;;;;;;49.78;33.50;;;;;;;7.94;100.00;102453.78;1044620;28;20292;-76
2021/12/13 02:52:39;;;;;;;55.28;31.55;;;;;;;7.90;100.00;102447.13;1047599;28;20661;-76
2021/12/13 02:53:16;;;;;;;53.42;33.65;;;;;;;7.90;100.00;102442.66;1042875;28;20322;-76
2021/12/13 02:53:55;;;;;;;66.57;35.20;;;;;;;7.89;100.00;102445.47;1036664;28;20284;-75
2021/12/13 02:54:43;;;;;;;54.88;31.80;;;;;;;7.81;100.00;102451.56;1039737;28;20284;-76
2021/12/13 02:55:22;;;;;;;48.83;30.70;;;;;;;7.79;100.00;102450.91;1033680;28;20755;-84
2021/12/13 02:55:54;;;;;;;49.08;31.58;;;;;;;7.83;100.00;102452.25;1043500;28;20310;-84
2021/12/13 02:56:30;;;;;;;57.95;32.65;;;;;;;7.87;100.00;102447.44;1039151;28;20298;-84
2021/12/13 02:57:11;;;;;;;50.88;31.92;;;;;;;7.86;100.00;102451.94;1043238;28;20346;-84
2021/12/13 02:57:48;;;;;;;61.40;31.17;;;;;;;7.86;100.00;102453.75;1047091;28;20279;-84
2021/12/13 02:58:22;;;;;;;55.38;34.42;;;;;;;7.85;100.00;102449.44;1047415;28;20099;-84
2021/12/13 02:58:55;;;;;;;50.28;34.08;;;;;;;7.85;100.00;102449.44;1046495;28;20290;-82
2021/12/13 02:59:30;;;;;;;51.85;33.40;;;;;;;7.85;100.00;102446.78;1045618;28;20291;-84
2021/12/13 03:00:25;;;;;;;48.33;32.90;;;;;;;7.86;100.00;102451.09;1041359;28;20315;-84
2021/12/13 03:01:07;;;;;;;52.50;32.05;;;;;;;7.90;100.00;102450.63;1041056;28;20828;-85
2021/12/13 03:01:41;;;;;;;61.17;32.22;;;;;;;7.90;100.00;102447.97;1038338;28;20283;-84
2021/12/13 03:02:36;;;;;;;57.60;34.33;;;;;;;7.89;100.00;102451.59;1043526;28;20279;-84
2021/12/13 03:03:11;;;;;;;54.70;30.90;;;;;;;7.96;100.00;102449.19;1038631;28;20711;-85
2021/12/13 03:03:50;;;;;;;52.45;33.15;;;;;;;7.93;100.00;102460.91;1039112;28;20287;-84
2021/12/13 03:04:29;;;;;;;59.58;33.58;;;;;;;7.92;100.00;102445.16;1040146;28;20283;-77
2021/12/13 03:05:02;;;;;;;63.95;34.70;;;;;;;7.91;100.00;102452.28;1037801;28;20311;-76
2021/12/13 03:05:37;;;;;;;52.88;34.67;;;;;;;7.90;100.00;102447.97;1041909;28;20284;-75